Time;durP1;ratioP1;P1;durP2;ratioP2;P2;SDS_P1;SDS_P2;PMS_P1;PMS_P2;Temp;Humidity;BMP_temperature;BMP_pressure;BME280_temperature;BME280_humidity;BME280_pressure;Samples;Min_cycle;Max_cycle;Signal;HPM_P1;HPM_P2
2023/11/16 00:01:27;;;;;;;13.77;4.63;;;12.70;99.90;;;;;;4249003;27;20043;-59
2023/11/16 00:03:31;;;;;;;15.60;3.97;;;12.60;99.90;;;;;;4248799;27;20059;-58
2023/11/16 00:05:36;;;;;;;13.55;3.88;;;12.70;99.90;;;;;;4249090;27;20103;-63
2023/11/16 00:07:40;;;;;;;15.50;4.20;;;12.60;99.90;;;;;;4248706;27;20049;-62
2023/11/16 00:09:42;;;;;;;13.27;4.23;;;12.70;99.90;;;;;;4249335;27;20070;-59
2023/11/16 00:11:44;;;;;;;14.02;3.90;;;12.70;99.90;;;;;;4248716;27;20516;-64
2023/11/16 00:13:47;;;;;;;9.15;3.85;;;12.70;99.90;;;;;;4249054;27;20120;-58
2023/11/16 00:15:52;;;;;;;13.10;4.18;;;12.70;99.90;;;;;;4248998;27;20121;-64
2023/11/16 00:17:54;;;;;;;;;;;12.80;99.90;;;;;;4249267;27;20059;-58
2023/11/16 00:19:58;;;;;;;12.57;4.15;;;12.80;99.90;;;;;;4248695;27;19926;-60
2023/11/16 00:22:01;;;;;;;15.18;4.05;;;12.70;99.90;;;;;;4248152;27;20088;-57
2023/11/16 00:24:06;;;;;;;15.52;3.67;;;12.90;99.90;;;;;;4248409;27;20124;-58
2023/11/16 00:26:11;;;;;;;9.07;3.20;;;12.80;99.90;;;;;;4248638;27;20047;-58
2023/11/16 00:28:14;;;;;;;8.13;3.00;;;12.90;99.90;;;;;;4248584;27;20075;-58
2023/11/16 00:30:17;;;;;;;14.50;3.60;;;12.90;99.90;;;;;;4248344;27;20133;-58
2023/11/16 00:32:19;;;;;;;13.50;4.50;;;12.80;99.90;;;;;;4248415;27;20071;-59
2023/11/16 00:34:21;;;;;;;14.95;3.85;;;12.80;99.90;;;;;;4230435;28;20054;-60
2023/11/16 00:36:24;;;;;;;14.88;4.53;;;12.80;99.90;;;;;;4248283;27;20051;-58
2023/11/16 00:38:27;;;;;;;13.75;3.72;;;12.80;99.90;;;;;;4248066;27;20043;-57
2023/11/16 00:40:32;;;;;;;9.52;3.83;;;12.80;99.90;;;;;;4248647;27;20088;-62
2023/11/16 00:42:36;;;;;;;7.60;3.40;;;12.80;99.90;;;;;;4248937;27;20065;-58
2023/11/16 00:44:39;;;;;;;20.42;4.03;;;12.80;99.90;;;;;;4248453;27;20490;-58
2023/11/16 00:46:43;;;;;;;12.60;3.65;;;12.90;99.90;;;;;;4248292;27;20043;-58
2023/11/16 00:48:45;;;;;;;10.40;3.15;;;12.90;99.90;;;;;;4248644;27;20111;-59
2023/11/16 00:50:48;;;;;;;10.00;3.42;;;12.90;99.90;;;;;;4248254;27;20082;-59
2023/11/16 00:52:51;;;;;;;12.07;4.05;;;12.90;99.90;;;;;;4248081;27;20130;-58
2023/11/16 00:54:53;;;;;;;14.27;4.32;;;12.80;99.90;;;;;;4229664;28;20410;-59
2023/11/16 00:56:55;;;;;;;10.23;3.83;;;12.80;99.90;;;;;;4248025;27;20039;-58
2023/11/16 00:58:58;;;;;;;10.13;3.58;;;12.80;99.90;;;;;;4248147;27;20047;-57
2023/11/16 01:01:00;;;;;;;13.50;4.55;;;12.80;99.90;;;;;;4247947;27;20047;-58
2023/11/16 01:03:06;;;;;;;14.82;3.90;;;12.80;99.90;;;;;;4229501;28;20085;-58
2023/11/16 01:05:10;;;;;;;12.60;3.20;;;12.70;99.90;;;;;;4247456;27;20055;-59
2023/11/16 01:07:12;;;;;;;11.43;3.85;;;12.70;99.90;;;;;;4247866;27;20137;-60
2023/11/16 01:09:19;;;;;;;13.45;3.90;;;12.70;99.90;;;;;;4248128;27;20043;-59
2023/11/16 01:11:27;;;;;;;12.20;3.78;;;12.70;99.90;;;;;;4247943;27;20054;-58
2023/11/16 01:13:38;;;;;;;14.38;4.10;;;12.70;99.90;;;;;;4247758;27;20062;-58
2023/11/16 01:15:40;;;;;;;12.38;3.72;;;12.60;99.90;;;;;;4248016;27;20051;-64
2023/11/16 01:17:45;;;;;;;19.80;4.85;;;12.50;99.90;;;;;;4247616;27;20409;-59
2023/11/16 01:19:47;;;;;;;12.27;4.20;;;12.40;99.90;;;;;;4247438;27;20043;-61
2023/11/16 01:21:58;;;;;;;13.32;4.45;;;12.40;99.90;;;;;;4247538;27;20049;-59
2023/11/16 01:24:03;;;;;;;11.57;3.97;;;12.40;99.90;;;;;;4229663;28;20135;-58
2023/11/16 01:26:15;;;;;;;12.93;3.85;;;12.50;99.90;;;;;;4230178;28;20036;-58
2023/11/16 01:28:20;;;;;;;9.63;3.55;;;12.50;99.90;;;;;;4247380;27;20035;-59
2023/11/16 01:30:23;;;;;;;16.00;3.47;;;12.50;99.90;;;;;;4247259;27;20043;-56
2023/11/16 01:32:25;;;;;;;13.52;4.10;;;12.50;99.90;;;;;;4247322;27;20046;-58
2023/11/16 01:34:27;;;;;;;15.60;4.07;;;12.50;99.90;;;;;;4247120;27;20043;-58
2023/11/16 01:36:30;;;;;;;14.68;4.30;;;12.50;99.90;;;;;;4247323;27;20161;-59
2023/11/16 01:38:32;;;;;;;10.80;4.30;;;12.50;99.90;;;;;;4247229;27;20047;-57
2023/11/16 01:40:36;;;;;;;14.15;4.38;;;12.40;99.90;;;;;;4247537;27;20039;-58
2023/11/16 01:42:39;;;;;;;13.65;3.67;;;12.40;99.90;;;;;;4247181;27;20047;-58
2023/11/16 01:44:43;;;;;;;11.43;3.58;;;12.40;99.90;;;;;;4247394;27;20456;-58
2023/11/16 01:46:45;;;;;;;14.18;4.82;;;12.40;99.90;;;;;;4248011;27;20042;-58
2023/11/16 01:48:49;;;;;;;18.98;4.22;;;12.40;99.90;;;;;;4247145;27;20071;-60
2023/11/16 01:50:53;;;;;;;17.70;5.95;;;12.40;99.90;;;;;;4247711;27;20449;-58
2023/11/16 01:53:03;;;;;;;14.87;5.37;;;12.50;99.90;;;;;;4247764;27;20043;-62
2023/11/16 01:55:06;;;;;;;16.05;5.70;;;12.50;99.90;;;;;;4247174;27;20523;-58
2023/11/16 01:57:08;;;;;;;15.55;6.65;;;12.50;99.90;;;;;;4247352;27;20039;-58
2023/11/16 01:59:12;;;;;;;15.13;5.80;;;12.60;99.90;;;;;;4247757;27;20122;-59
2023/11/16 02:01:16;;;;;;;17.50;5.88;;;12.50;99.90;;;;;;4247439;27;20047;-62
2023/11/16 02:03:18;;;;;;;15.82;6.03;;;12.50;99.90;;;;;;4246700;27;20521;-59
2023/11/16 02:05:21;;;;;;;15.40;6.32;;;12.50;99.90;;;;;;4247259;28;20581;-62
2023/11/16 02:07:24;;;;;;;14.10;5.82;;;12.50;99.90;;;;;;4247303;28;20051;-64
2023/11/16 02:09:26;;;;;;;13.35;5.05;;;12.40;99.90;;;;;;4247237;28;20528;-60
2023/11/16 02:11:28;;;;;;;15.43;6.25;;;12.40;99.90;;;;;;4247192;28;20066;-60
2023/11/16 02:13:31;;;;;;;19.92;5.97;;;12.40;99.90;;;;;;4247682;28;20047;-63
2023/11/16 02:15:34;;;;;;;16.92;6.40;;;12.40;99.90;;;;;;4246859;27;20180;-58
2023/11/16 02:17:39;;;;;;;15.32;5.45;;;12.50;99.90;;;;;;4249648;27;20070;-58
2023/11/16 02:19:42;;;;;;;24.15;7.60;;;12.40;99.90;;;;;;4250366;27;20458;-58
2023/11/16 02:21:46;;;;;;;16.42;6.55;;;12.30;99.90;;;;;;4250328;27;20047;-57
2023/11/16 02:23:50;;;;;;;19.33;7.07;;;12.40;99.90;;;;;;4250706;27;20067;-58
2023/11/16 02:25:56;;;;;;;17.85;7.25;;;12.30;99.90;;;;;;4251051;27;20046;-59
2023/11/16 02:27:58;;;;;;;19.52;6.80;;;12.30;99.90;;;;;;4250755;27;20065;-59
2023/11/16 02:30:04;;;;;;;17.67;7.00;;;12.40;99.90;;;;;;4250558;27;20074;-59
2023/11/16 02:32:06;;;;;;;15.82;6.80;;;12.40;99.90;;;;;;4250097;27;20078;-58
2023/11/16 02:34:08;;;;;;;17.73;6.68;;;12.30;99.90;;;;;;4250305;27;20045;-58
2023/11/16 02:36:10;;;;;;;16.70;6.90;;;12.30;99.90;;;;;;4232156;28;20079;-61
2023/11/16 02:38:13;;;;;;;17.33;6.93;;;12.40;99.90;;;;;;4250319;27;20528;-58
2023/11/16 02:40:17;;;;;;;13.90;6.00;;;12.30;99.90;;;;;;4250076;27;20043;-58
2023/11/16 02:42:19;;;;;;;21.48;6.50;;;12.40;99.90;;;;;;4250239;27;20051;-58
2023/11/16 02:44:21;;;;;;;20.77;6.80;;;12.30;99.90;;;;;;4250070;27;20096;-58
2023/11/16 02:46:23;;;;;;;18.10;7.28;;;12.30;99.90;;;;;;4249728;27;20054;-58
2023/11/16 02:48:26;;;;;;;16.58;6.57;;;12.40;99.90;;;;;;4250334;27;20593;-66
2023/11/16 02:50:29;;;;;;;12.95;6.15;;;12.50;99.90;;;;;;4250069;27;20490;-62
2023/11/16 02:52:32;;;;;;;20.00;7.13;;;12.30;99.90;;;;;;4250121;27;20150;-58
2023/11/16 02:54:34;;;;;;;16.33;6.80;;;12.30;99.90;;;;;;4250005;27;20065;-58
2023/11/16 02:56:38;;;;;;;18.75;7.13;;;12.40;99.90;;;;;;4250050;27;20108;-57
2023/11/16 02:58:43;;;;;;;17.60;6.93;;;12.50;99.90;;;;;;4250213;27;20070;-62
2023/11/16 03:00:45;;;;;;;;;;;12.40;99.90;;;;;;4232787;28;20054;-58
2023/11/16 03:02:51;;;;;;;17.83;6.85;;;12.40;99.90;;;;;;4249559;27;19919;-58
2023/11/16 03:04:54;;;;;;;17.42;6.47;;;12.30;99.90;;;;;;4250005;27;20046;-58
2023/11/16 03:06:56;;;;;;;15.02;5.85;;;12.30;99.90;;;;;;4249531;27;20039;-58
2023/11/16 03:08:58;;;;;;;14.32;5.53;;;12.40;99.90;;;;;;4249802;27;20047;-57
2023/11/16 03:11:02;;;;;;;14.88;5.88;;;12.40;99.90;;;;;;4249867;27;20047;-58
2023/11/16 03:13:07;;;;;;;20.85;7.63;;;12.40;99.90;;;;;;4231417;28;20043;-58
2023/11/16 03:15:09;;;;;;;19.27;6.63;;;12.40;99.90;;;;;;4249816;27;20436;-59
2023/11/16 03:17:11;;;;;;;17.63;5.85;;;12.30;99.90;;;;;;4249438;27;20047;-58
2023/11/16 03:19:13;;;;;;;19.42;7.68;;;12.30;99.90;;;;;;4249680;27;20063;-58
2023/11/16 03:21:16;;;;;;;18.73;6.95;;;12.30;99.90;;;;;;4249607;27;20047;-62
2023/11/16 03:23:18;;;;;;;19.27;6.57;;;12.30;99.90;;;;;;4249457;27;20043;-58
2023/11/16 03:25:20;;;;;;;16.65;6.57;;;12.30;99.90;;;;;;4249542;27;20108;-61
2023/11/16 03:27:22;;;;;;;13.85;7.07;;;12.30;99.90;;;;;;4249374;27;20043;-58
2023/11/16 03:29:26;;;;;;;20.50;7.57;;;12.20;99.90;;;;;;4248659;27;20130;-58
2023/11/16 03:31:28;;;;;;;23.90;6.90;;;12.20;99.90;;;;;;4249426;27;20073;-58
2023/11/16 03:33:30;;;;;;;22.90;7.93;;;12.20;99.90;;;;;;4250049;27;20050;-59
2023/11/16 03:35:32;;;;;;;17.38;6.88;;;12.20;99.90;;;;;;4249978;27;20544;-59
2023/11/16 03:37:34;;;;;;;23.70;7.18;;;12.20;99.90;;;;;;4249907;27;20410;-58
2023/11/16 03:39:36;;;;;;;17.65;7.25;;;12.20;99.90;;;;;;4249429;27;20494;-58
2023/11/16 03:41:38;;;;;;;18.77;7.85;;;12.20;99.90;;;;;;4249391;27;20047;-58
2023/11/16 03:43:40;;;;;;;17.90;6.20;;;12.20;99.90;;;;;;4249069;27;20538;-57
2023/11/16 03:45:44;;;;;;;19.45;7.55;;;12.20;99.90;;;;;;4248900;27;20039;-59
2023/11/16 03:47:46;;;;;;;16.38;5.95;;;12.20;99.90;;;;;;4230954;28;20046;-58
2023/11/16 03:49:49;;;;;;;16.77;6.18;;;12.30;99.90;;;;;;4249289;27;20039;-57
2023/11/16 03:51:51;;;;;;;14.05;6.00;;;12.20;99.90;;;;;;4249232;27;20047;-58
2023/11/16 03:53:53;;;;;;;15.07;6.60;;;12.20;99.90;;;;;;4249170;27;20485;-59
2023/11/16 03:55:57;;;;;;;17.02;5.80;;;12.10;99.90;;;;;;4249178;27;20050;-58
2023/11/16 03:57:59;;;;;;;15.67;5.63;;;12.20;99.90;;;;;;4249107;27;20061;-58
2023/11/16 04:00:01;;;;;;;14.50;5.40;;;12.10;99.90;;;;;;4248962;27;20047;-59
2023/11/16 04:02:05;;;;;;;17.02;6.15;;;12.00;99.90;;;;;;4248767;27;20077;-62
2023/11/16 04:04:10;;;;;;;10.95;5.22;;;12.10;99.90;;;;;;4230617;28;20103;-59
2023/11/16 04:06:19;;;;;;;16.60;6.38;;;12.10;99.90;;;;;;4249465;27;20047;-61
2023/11/16 04:08:22;;;;;;;18.92;5.90;;;12.00;99.90;;;;;;4249209;27;20047;-59
2023/11/16 04:10:24;;;;;;;13.98;5.72;;;12.00;99.90;;;;;;4230436;28;20046;-59
2023/11/16 04:12:27;;;;;;;17.80;5.68;;;12.00;99.90;;;;;;4248778;27;20130;-58
2023/11/16 04:14:32;;;;;;;14.50;5.90;;;12.10;99.90;;;;;;4248478;27;20118;-59
2023/11/16 04:16:35;;;;;;;;;;;12.30;99.90;;;;;;4214396;28;20098;-59
2023/11/16 04:18:39;;;;;;;18.08;6.07;;;12.30;99.90;;;;;;4249095;27;19919;-59
2023/11/16 04:20:41;;;;;;;17.00;5.93;;;12.30;99.90;;;;;;4248567;27;20254;-59
2023/11/16 04:22:44;;;;;;;13.13;5.25;;;12.30;99.90;;;;;;4248656;27;20039;-58
2023/11/16 04:24:51;;;;;;;15.57;5.55;;;12.30;99.90;;;;;;4248395;27;20051;-59
2023/11/16 04:26:54;;;;;;;14.93;5.57;;;12.20;99.90;;;;;;4249201;27;20498;-61
2023/11/16 04:28:57;;;;;;;16.63;6.88;;;12.20;99.90;;;;;;4230381;28;20040;-59
2023/11/16 04:30:59;;;;;;;14.52;5.50;;;12.20;99.90;;;;;;4248349;27;20464;-58
2023/11/16 04:33:01;;;;;;;13.23;5.55;;;12.20;99.90;;;;;;4248554;27;20081;-62
2023/11/16 04:35:09;;;;;;;15.00;5.95;;;12.30;99.90;;;;;;4248530;27;20123;-60
2023/11/16 04:37:11;;;;;;;14.30;5.82;;;12.20;99.90;;;;;;4248490;27;20046;-59
2023/11/16 04:39:13;;;;;;;15.55;5.90;;;12.10;99.90;;;;;;4248463;27;20043;-64
2023/11/16 04:41:15;;;;;;;13.60;5.30;;;12.10;99.90;;;;;;4248517;27;20062;-60
2023/11/16 04:43:17;;;;;;;12.48;5.22;;;12.10;99.90;;;;;;4248013;27;20512;-59
2023/11/16 04:45:19;;;;;;;16.38;5.88;;;12.00;99.90;;;;;;4248200;27;20039;-57
2023/11/16 04:47:22;;;;;;;22.02;6.47;;;12.10;99.90;;;;;;4248215;27;20498;-59
2023/11/16 04:49:24;;;;;;;16.27;5.70;;;12.10;99.90;;;;;;4248282;27;20063;-59
2023/11/16 04:51:27;;;;;;;14.80;6.57;;;12.20;99.90;;;;;;4248008;27;20118;-58
2023/11/16 04:53:29;;;;;;;17.02;6.80;;;12.10;99.90;;;;;;4247802;27;20039;-59
2023/11/16 04:55:32;;;;;;;14.32;6.07;;;11.90;99.90;;;;;;4248101;27;20679;-58
2023/11/16 04:57:34;;;;;;;18.75;6.78;;;11.90;99.90;;;;;;4247767;27;20506;-58
2023/11/16 04:59:36;;;;;;;16.15;5.53;;;11.90;99.90;;;;;;4248029;27;20071;-58
2023/11/16 05:01:38;;;;;;;16.00;5.60;;;11.90;99.90;;;;;;4247925;27;20073;-60
2023/11/16 05:03:40;;;;;;;18.23;6.53;;;11.90;99.90;;;;;;4247646;27;20142;-59
2023/11/16 05:05:43;;;;;;;11.35;5.45;;;11.90;99.90;;;;;;4248239;27;20055;-58
2023/11/16 05:07:46;;;;;;;18.20;5.80;;;11.90;99.90;;;;;;4248012;27;20071;-60
2023/11/16 05:09:49;;;;;;;15.95;5.15;;;11.90;99.90;;;;;;4247855;27;20043;-59
2023/11/16 05:11:55;;;;;;;14.10;6.03;;;11.90;99.90;;;;;;4247493;27;20134;-58
2023/11/16 05:13:57;;;;;;;14.95;5.22;;;11.90;99.90;;;;;;4229585;28;20122;-60
2023/11/16 05:15:59;;;;;;;15.55;4.85;;;11.90;99.90;;;;;;4247912;27;20065;-59
2023/11/16 05:18:01;;;;;;;14.60;5.25;;;11.90;99.90;;;;;;4247594;27;20080;-59
2023/11/16 05:20:04;;;;;;;17.92;5.63;;;11.90;99.90;;;;;;4247719;27;20043;-58
2023/11/16 05:22:06;;;;;;;17.25;5.60;;;11.90;99.90;;;;;;4247712;27;20047;-59
2023/11/16 05:24:10;;;;;;;13.07;4.88;;;11.80;99.90;;;;;;4248011;27;20047;-59
2023/11/16 05:26:12;;;;;;;13.68;4.97;;;11.70;99.90;;;;;;4247244;27;20096;-58
2023/11/16 05:28:14;;;;;;;13.27;4.60;;;11.70;99.90;;;;;;4247488;27;20047;-59
2023/11/16 05:30:17;;;;;;;16.38;5.07;;;11.70;99.90;;;;;;4247936;27;20047;-60
2023/11/16 05:32:19;;;;;;;13.32;5.30;;;11.80;99.90;;;;;;4246502;27;20517;-58
2023/11/16 05:34:22;;;;;;;13.88;5.15;;;11.70;99.90;;;;;;4247401;27;20122;-58
2023/11/16 05:36:29;;;;;;;14.93;5.38;;;11.70;99.90;;;;;;4247335;27;20055;-61
2023/11/16 05:38:31;;;;;;;17.60;5.55;;;11.60;99.90;;;;;;4247377;27;20039;-59
2023/11/16 05:40:35;;;;;;;14.80;5.10;;;11.60;99.90;;;;;;4247124;27;20070;-61
2023/11/16 05:42:37;;;;;;;15.27;5.38;;;11.50;99.90;;;;;;4247350;27;20204;-58
2023/11/16 05:44:39;;;;;;;12.75;5.00;;;11.50;99.90;;;;;;4247261;27;20437;-57
2023/11/16 05:46:43;;;;;;;14.85;4.93;;;11.50;99.90;;;;;;4247341;27;20073;-62
2023/11/16 05:48:45;;;;;;;12.07;5.63;;;11.60;99.90;;;;;;4247221;27;20043;-59
2023/11/16 05:50:47;;;;;;;13.95;5.78;;;11.60;99.90;;;;;;4247006;27;20053;-59
2023/11/16 05:52:49;;;;;;;19.77;6.40;;;11.50;99.90;;;;;;4246910;27;20039;-60
2023/11/16 05:54:51;;;;;;;14.73;5.82;;;11.50;99.90;;;;;;4246872;27;20050;-63
2023/11/16 05:56:55;;;;;;;16.85;5.60;;;11.40;99.90;;;;;;4247466;27;20043;-60
2023/11/16 05:58:57;;;;;;;11.73;4.95;;;11.50;99.90;;;;;;4247224;27;20465;-58
2023/11/16 06:00:59;;;;;;;13.40;5.10;;;11.50;99.90;;;;;;4247071;27;20466;-58
2023/11/16 06:03:02;;;;;;;12.13;5.38;;;11.50;99.90;;;;;;4246829;27;20051;-57
2023/11/16 06:05:05;;;;;;;14.48;5.25;;;11.40;99.90;;;;;;4228745;28;20076;-58
2023/11/16 06:07:07;;;;;;;14.27;5.05;;;11.40;99.90;;;;;;4247324;28;20088;-62
2023/11/16 06:09:09;;;;;;;13.15;4.97;;;11.40;99.90;;;;;;4247412;28;20047;-57
2023/11/16 06:11:14;;;;;;;14.65;4.53;;;11.40;99.90;;;;;;4246582;28;20066;-65
2023/11/16 06:13:22;;;;;;;12.88;4.35;;;11.40;99.90;;;;;;4246861;28;20047;-58
2023/11/16 06:15:25;;;;;;;15.07;4.70;;;11.40;99.90;;;;;;4246821;28;20099;-59
2023/11/16 06:17:27;;;;;;;15.35;5.05;;;11.40;99.90;;;;;;4228541;28;20047;-59
2023/11/16 06:19:29;;;;;;;14.27;4.50;;;11.40;99.90;;;;;;4246790;28;20080;-57
2023/11/16 06:21:31;;;;;;;15.27;5.03;;;11.50;99.90;;;;;;4246801;28;20508;-59
2023/11/16 06:23:34;;;;;;;17.23;5.40;;;11.50;99.90;;;;;;4246969;28;20081;-60
2023/11/16 06:25:36;;;;;;;13.75;5.28;;;11.40;99.90;;;;;;4246491;28;20069;-57
2023/11/16 06:27:38;;;;;;;26.05;5.80;;;11.40;99.90;;;;;;4246996;28;20539;-58
2023/11/16 06:29:42;;;;;;;14.80;5.10;;;11.40;99.90;;;;;;4246838;28;20121;-58
2023/11/16 06:31:44;;;;;;;14.25;5.00;;;11.50;99.90;;;;;;4246719;28;20478;-58
2023/11/16 06:33:46;;;;;;;12.60;5.43;;;11.40;99.90;;;;;;4246889;28;20050;-58
2023/11/16 06:35:48;;;;;;;16.52;5.50;;;11.30;99.90;;;;;;4246934;28;20088;-58
2023/11/16 06:37:51;;;;;;;18.48;5.25;;;11.20;99.90;;;;;;4246668;28;20047;-58
2023/11/16 06:39:53;;;;;;;16.60;5.78;;;11.30;99.90;;;;;;4246549;28;20058;-58
2023/11/16 06:41:55;;;;;;;14.60;5.10;;;11.30;99.90;;;;;;4246942;28;20051;-59
2023/11/16 06:43:59;;;;;;;18.27;5.05;;;11.20;99.90;;;;;;4246722;28;20047;-62
2023/11/16 06:46:03;;;;;;;11.50;4.38;;;11.20;99.90;;;;;;4246821;27;20104;-64
2023/11/16 06:48:06;;;;;;;12.27;4.25;;;11.40;99.90;;;;;;4246898;28;20043;-58
2023/11/16 06:50:12;;;;;;;9.40;4.63;;;11.30;99.90;;;;;;4246858;28;20448;-58
2023/11/16 06:52:16;;;;;;;11.52;4.60;;;11.30;99.90;;;;;;4246980;28;20489;-60
2023/11/16 06:54:21;;;;;;;10.00;4.67;;;11.30;99.90;;;;;;4246369;28;20050;-59
2023/11/16 06:56:27;;;;;;;15.18;4.47;;;11.30;99.90;;;;;;4246920;28;20047;-61
2023/11/16 06:58:29;;;;;;;12.23;4.03;;;11.20;99.90;;;;;;4246757;28;20043;-60
2023/11/16 07:00:31;;;;;;;9.63;4.18;;;11.20;99.90;;;;;;4246678;28;20135;-59
2023/11/16 07:02:35;;;;;;;13.55;4.15;;;11.20;99.90;;;;;;4247436;27;20078;-59
2023/11/16 07:04:37;;;;;;;12.52;4.63;;;11.20;99.90;;;;;;4249941;27;20069;-59
2023/11/16 07:06:40;;;;;;;12.50;4.38;;;11.20;99.90;;;;;;4250038;27;20463;-59
2023/11/16 07:08:42;;;;;;;9.90;3.65;;;11.20;99.90;;;;;;4249358;27;20039;-58
2023/11/16 07:10:44;;;;;;;9.63;3.63;;;11.10;99.90;;;;;;4249741;27;20122;-59
2023/11/16 07:12:46;;;;;;;10.25;3.72;;;11.10;99.90;;;;;;4249845;27;20054;-58
2023/11/16 07:14:51;;;;;;;9.50;3.70;;;11.20;99.90;;;;;;4249832;27;20075;-58
2023/11/16 07:16:55;;;;;;;13.23;3.47;;;11.20;99.90;;;;;;4265485;27;20047;-59
2023/11/16 07:18:59;;;;;;;11.30;4.13;;;11.20;99.90;;;;;;4249663;27;20043;-57
2023/11/16 07:21:04;;;;;;;9.32;3.90;;;11.20;99.90;;;;;;4249750;27;20419;-58
2023/11/16 07:23:06;;;;;;;15.00;4.20;;;11.20;99.90;;;;;;4249645;27;20138;-59
2023/11/16 07:25:09;;;;;;;8.98;3.30;;;11.30;99.90;;;;;;4249815;27;20054;-58
2023/11/16 07:27:11;;;;;;;10.90;3.67;;;11.30;99.90;;;;;;4249715;27;20108;-60
2023/11/16 07:29:17;;;;;;;13.73;3.70;;;11.30;99.90;;;;;;4249560;27;20057;-59
2023/11/16 07:31:21;;;;;;;6.55;3.15;;;11.40;99.90;;;;;;4249893;27;20129;-63
2023/11/16 07:33:23;;;;;;;12.43;3.35;;;11.40;99.90;;;;;;4249706;27;20053;-59
2023/11/16 07:35:27;;;;;;;8.43;3.28;;;11.30;99.90;;;;;;4249526;27;20043;-60
2023/11/16 07:37:30;;;;;;;16.02;3.80;;;11.30;99.90;;;;;;4249090;27;20355;-64
2023/11/16 07:39:32;;;;;;;11.95;3.92;;;11.30;99.90;;;;;;4249268;27;20070;-59
2023/11/16 07:41:35;;;;;;;11.55;3.40;;;11.30;99.90;;;;;;4249182;27;20050;-59
2023/11/16 07:43:43;;;;;;;12.02;3.00;;;11.30;99.90;;;;;;4249470;27;20044;-64
2023/11/16 07:45:45;;;;;;;12.52;3.60;;;11.30;99.90;;;;;;4249125;27;20049;-67
2023/11/16 07:47:48;;;;;;;6.45;3.00;;;11.40;99.90;;;;;;4249826;27;20047;-67
2023/11/16 07:49:51;;;;;;;16.35;3.55;;;11.40;99.90;;;;;;4250044;27;20046;-61
2023/11/16 07:51:57;;;;;;;14.07;4.25;;;11.40;99.90;;;;;;4249670;27;20423;-64
2023/11/16 07:54:03;;;;;;;12.32;3.15;;;11.30;99.90;;;;;;4250657;27;20505;-62
2023/11/16 07:56:06;;;;;;;9.98;3.80;;;11.20;99.90;;;;;;4250500;27;20051;-62
2023/11/16 07:58:13;;;;;;;13.57;3.85;;;11.30;99.90;;;;;;4249982;27;20055;-64
2023/11/16 08:00:22;;;;;;;11.25;3.50;;;11.40;99.90;;;;;;4250062;27;20516;-60
2023/11/16 08:03:41;;;;;;;11.52;3.40;;;11.50;99.90;;;;;;4249397;27;20157;-66
2023/11/16 08:04:47;;;;;;;7.78;3.08;;;11.40;99.90;;;;;;4249697;27;20047;-61
2023/11/16 08:06:51;;;;;;;7.68;2.95;;;11.40;99.90;;;;;;4249476;27;20047;-65
2023/11/16 08:08:55;;;;;;;12.27;3.30;;;11.50;99.90;;;;;;4249844;27;20515;-68
2023/11/16 08:10:58;;;;;;;14.50;3.88;;;11.50;99.90;;;;;;4249854;27;20054;-64
2023/11/16 08:13:00;;;;;;;11.95;3.78;;;11.40;99.90;;;;;;4248520;27;20043;-59
2023/11/16 08:15:07;;;;;;;16.40;3.75;;;11.40;99.90;;;;;;4229620;28;20048;-58
2023/11/16 08:17:12;;;;;;;16.48;3.78;;;11.40;99.90;;;;;;4248769;27;20043;-58
2023/11/16 08:19:14;;;;;;;9.73;2.85;;;11.50;99.90;;;;;;4248465;27;20047;-59
2023/11/16 08:21:16;;;;;;;12.52;3.47;;;11.40;99.90;;;;;;4248130;27;20486;-59
2023/11/16 08:23:20;;;;;;;10.90;2.85;;;11.50;99.90;;;;;;4248378;27;20050;-59
2023/11/16 08:25:28;;;;;;;14.35;3.20;;;11.50;99.90;;;;;;4248536;27;20043;-59
2023/11/16 08:27:31;;;;;;;15.50;4.32;;;11.50;99.90;;;;;;4248449;27;20039;-59
2023/11/16 08:29:33;;;;;;;14.95;4.10;;;11.40;99.90;;;;;;4248819;27;20043;-60
2023/11/16 08:31:36;;;;;;;14.82;3.67;;;11.40;99.90;;;;;;4248478;27;20071;-59
2023/11/16 08:33:39;;;;;;;12.88;3.95;;;11.40;99.90;;;;;;4248490;27;20130;-59
2023/11/16 08:35:42;;;;;;;12.80;4.15;;;11.40;99.90;;;;;;4248229;27;20460;-58
2023/11/16 08:37:44;;;;;;;15.82;4.22;;;11.40;99.90;;;;;;4248340;27;20359;-58
2023/11/16 08:39:46;;;;;;;15.30;3.78;;;11.30;99.90;;;;;;4248383;27;20598;-58
2023/11/16 08:41:52;;;;;;;12.63;3.67;;;11.40;99.90;;;;;;4230067;28;20132;-62
2023/11/16 08:43:54;;;;;;;11.80;3.65;;;11.50;99.90;;;;;;4248346;27;20043;-61
2023/11/16 08:45:57;;;;;;;10.85;3.38;;;11.50;99.90;;;;;;4248235;27;20047;-58
2023/11/16 08:47:59;;;;;;;8.70;3.30;;;11.50;99.90;;;;;;4248569;27;20074;-61
2023/11/16 08:50:05;;;;;;;10.68;2.97;;;11.50;99.90;;;;;;4247903;27;20043;-59
2023/11/16 08:52:10;;;;;;;12.68;3.75;;;11.60;99.90;;;;;;4248107;27;20092;-58
2023/11/16 08:54:17;;;;;;;15.27;3.28;;;11.60;99.90;;;;;;4248090;27;20039;-58
2023/11/16 08:56:19;;;;;;;11.23;3.67;;;11.50;99.90;;;;;;4248286;27;20043;-60
2023/11/16 08:58:36;;;;;;;13.65;4.15;;;11.40;99.90;;;;;;4247909;27;20051;-60
2023/11/16 09:00:45;;;;;;;14.80;3.97;;;11.50;99.90;;;;;;4248056;27;20054;-62
2023/11/16 09:02:47;;;;;;;15.13;4.53;;;11.40;99.90;;;;;;4247633;27;20477;-60
2023/11/16 09:04:50;;;;;;;10.00;2.72;;;11.40;99.90;;;;;;4247508;27;20035;-61
2023/11/16 09:06:52;;;;;;;7.85;3.05;;;11.40;99.90;;;;;;4247729;27;20051;-59
2023/11/16 09:08:56;;;;;;;12.60;3.90;;;11.50;99.90;;;;;;4247870;27;20142;-59
2023/11/16 09:10:58;;;;;;;10.77;3.15;;;11.50;99.90;;;;;;4247906;27;20043;-58
2023/11/16 09:13:01;;;;;;;12.50;3.15;;;11.60;99.90;;;;;;4247712;27;20482;-61
2023/11/16 09:15:09;;;;;;;11.75;3.40;;;11.50;99.90;;;;;;4247521;27;20047;-58
2023/11/16 09:17:18;;;;;;;9.10;2.90;;;11.40;99.90;;;;;;4247841;27;20424;-59
2023/11/16 09:19:22;;;;;;;8.50;2.90;;;11.40;99.90;;;;;;4247323;27;20156;-58
2023/11/16 09:21:26;;;;;;;13.20;2.47;;;11.30;99.90;;;;;;4247430;27;20046;-58
2023/11/16 09:23:29;;;;;;;10.95;2.60;;;11.40;99.90;;;;;;4247437;27;20432;-58
2023/11/16 09:25:31;;;;;;;10.20;2.75;;;11.30;99.90;;;;;;4247416;27;20043;-63
2023/11/16 09:27:38;;;;;;;7.97;2.55;;;11.30;99.90;;;;;;4247550;27;20049;-58
2023/11/16 09:29:40;;;;;;;8.57;2.40;;;11.30;99.90;;;;;;4247468;27;20046;-59
2023/11/16 09:31:44;;;;;;;9.30;2.72;;;11.30;99.90;;;;;;4247339;27;20071;-58
2023/11/16 09:33:47;;;;;;;12.13;4.30;;;11.40;99.90;;;;;;4247179;27;20517;-57
2023/11/16 09:35:51;;;;;;;15.27;6.90;;;11.30;99.90;;;;;;4247331;27;20463;-59
2023/11/16 09:37:55;;;;;;;11.23;2.60;;;11.40;99.90;;;;;;4247535;27;20439;-60
2023/11/16 09:39:58;;;;;;;8.77;2.50;;;11.30;99.90;;;;;;4247482;27;20460;-59
2023/11/16 09:42:07;;;;;;;12.95;2.42;;;11.30;99.90;;;;;;4247578;27;20434;-59
2023/11/16 09:44:13;;;;;;;6.63;2.22;;;11.30;99.90;;;;;;4247183;27;20461;-58
2023/11/16 09:46:17;;;;;;;9.65;2.50;;;11.40;99.90;;;;;;4247584;27;20526;-59
2023/11/16 09:48:22;;;;;;;6.82;2.15;;;11.20;99.90;;;;;;4246916;27;20078;-60
2023/11/16 09:50:27;;;;;;;;;;;11.30;99.90;;;;;;4248411;27;20047;-59
2023/11/16 09:52:32;;;;;;;6.85;2.08;;;11.40;99.90;;;;;;4247456;27;20019;-59
2023/11/16 09:54:37;;;;;;;5.32;1.70;;;11.30;99.90;;;;;;4247189;27;20051;-58
2023/11/16 09:56:44;;;;;;;7.32;1.83;;;11.40;99.90;;;;;;4246929;27;20398;-59
2023/11/16 09:59:01;;;;;;;8.27;2.30;;;11.30;99.90;;;;;;4246264;27;20081;-58
2023/11/16 10:01:10;;;;;;;8.90;2.13;;;11.30;99.90;;;;;;4246644;27;20130;-58
2023/11/16 10:03:14;;;;;;;7.70;2.38;;;11.30;99.90;;;;;;4246284;27;20108;-58
2023/11/16 10:05:26;;;;;;;5.00;1.60;;;11.30;99.90;;;;;;4247049;27;20047;-59
2023/11/16 10:07:32;;;;;;;12.07;2.17;;;11.40;99.90;;;;;;4247283;27;20044;-58
2023/11/16 10:09:40;;;;;;;6.53;1.80;;;11.30;99.90;;;;;;4246705;28;20050;-59
2023/11/16 10:11:42;;;;;;;4.95;1.85;;;11.50;99.90;;;;;;4253171;27;20482;-58
2023/11/16 10:13:53;;;;;;;3.63;1.40;;;11.70;99.90;;;;;;4263928;27;20449;-58
2023/11/16 10:16:00;;;;;;;5.70;1.75;;;11.90;99.90;;;;;;4263886;27;20053;-57
2023/11/16 10:18:09;;;;;;;3.80;1.70;;;11.90;99.90;;;;;;4263725;27;20038;-59
2023/11/16 10:20:12;;;;;;;4.72;1.80;;;12.20;99.90;;;;;;4252010;27;20055;-60
2023/11/16 10:22:16;;;;;;;8.95;2.47;;;12.20;99.90;;;;;;4250128;27;20145;-58
2023/11/16 10:24:20;;;;;;;4.60;1.85;;;12.20;99.90;;;;;;4246954;28;20126;-59
2023/11/16 10:26:23;;;;;;;5.50;2.25;;;12.30;99.90;;;;;;4246963;28;20074;-60
2023/11/16 10:28:26;;;;;;;8.00;2.03;;;12.30;99.90;;;;;;4246477;28;20379;-59
2023/11/16 10:30:28;;;;;;;7.22;1.85;;;12.40;99.90;;;;;;4251752;27;20043;-63
2023/11/16 10:32:31;;;;;;;8.35;2.22;;;12.40;99.90;;;;;;4246888;28;20047;-60
2023/11/16 10:34:36;;;;;;;8.80;1.83;;;12.40;99.90;;;;;;4246991;27;20039;-59
2023/11/16 10:36:39;;;;;;;4.50;1.80;;;12.30;99.90;;;;;;4262439;27;20461;-59
2023/11/16 10:38:45;;;;;;;4.38;1.70;;;12.30;99.90;;;;;;4266766;27;20457;-58